UAE1VA OMDB-OKKK
Flight info
| Callsign | UAE1VA |
|---|---|
| Flight time | N/A |
| Altitude | 38000 |
| Route | RIDAP2F/30R RIDAP M557 TUMAK M600 KUMBO A453 DEBTI |
| Aircraft | A388/J-SADE2E3FGHIJ3J4J5M1RWXY/LB1D1 |
Departure
| Time | 2026-05-07 20:23 |
|---|---|
| Airport | Dubai International Airport (OMDB) |
Arrival
| Time | N/A |
|---|---|
| Airport | Kuwait International Airport (OKKK) |
| Time | Latitude | Longitude | Altitude | Speed | Heading |
|---|---|---|---|---|---|
| 2026-05-07 20:06 | 25.24263 | 55.37521 | 26 ft | 0 kts | 211° |
| 2026-05-07 20:16 | 25.24282 | 55.37533 | 32 ft | 4 kts | 211° |
| 2026-05-07 20:16 | 25.24305 | 55.37549 | 32 ft | 4 kts | 211° |
| 2026-05-07 20:17 | 25.24327 | 55.37560 | 32 ft | 4 kts | 191° |
| 2026-05-07 20:17 | 25.24346 | 55.37559 | 32 ft | 4 kts | 154° |
| 2026-05-07 20:17 | 25.24361 | 55.37544 | 30 ft | 3 kts | 122° |
| 2026-05-07 20:17 | 25.24373 | 55.37524 | 32 ft | 4 kts | 121° |
| 2026-05-07 20:18 | 25.24385 | 55.37501 | 32 ft | 1 kts | 121° |
| 2026-05-07 20:19 | 25.24383 | 55.37505 | 32 ft | 1 kts | 121° |
| 2026-05-07 20:19 | 25.24354 | 55.37558 | 32 ft | 13 kts | 121° |
| 2026-05-07 20:20 | 25.24297 | 55.37659 | 30 ft | 17 kts | 122° |
| 2026-05-07 20:20 | 25.24268 | 55.37763 | 26 ft | 13 kts | 61° |
| 2026-05-07 20:20 | 25.24314 | 55.37804 | 26 ft | 7 kts | 34° |
| 2026-05-07 20:20 | 25.24347 | 55.37832 | 27 ft | 0 kts | 37° |
| 2026-05-07 20:21 | 25.24349 | 55.37833 | 27 ft | 2 kts | 37° |
| 2026-05-07 20:21 | 25.24408 | 55.37880 | 28 ft | 20 kts | 34° |
| 2026-05-07 20:21 | 25.24536 | 55.37976 | 29 ft | 19 kts | 34° |
| 2026-05-07 20:21 | 25.24625 | 55.38042 | 28 ft | 11 kts | 32° |
| 2026-05-07 20:22 | 25.24639 | 55.38051 | 28 ft | 0 kts | 32° |
| 2026-05-07 20:22 | 25.24644 | 55.38055 | 29 ft | 4 kts | 32° |
| 2026-05-07 20:22 | 25.24693 | 55.38088 | 30 ft | 13 kts | 31° |
| 2026-05-07 20:22 | 25.24782 | 55.38067 | 31 ft | 19 kts | 303° |
| 2026-05-07 20:23 | 25.24983 | 55.37704 | 31 ft | 96 kts | 301° |
| 2026-05-07 20:23 | 25.25452 | 55.36861 | 30 ft | 155 kts | 301° |
| 2026-05-07 20:23 | 25.26046 | 55.35772 | 447 ft | 168 kts | 300° |
| 2026-05-07 20:23 | 25.26669 | 55.34657 | 1010 ft | 173 kts | 301° |
| 2026-05-07 20:24 | 25.27286 | 55.33545 | 1761 ft | 162 kts | 300° |
| 2026-05-07 20:24 | 25.27883 | 55.32457 | 2213 ft | 173 kts | 300° |
| 2026-05-07 20:24 | 25.28526 | 55.31302 | 2518 ft | 182 kts | 300° |
| 2026-05-07 20:24 | 25.29197 | 55.30102 | 2926 ft | 184 kts | 300° |
| 2026-05-07 20:25 | 25.29897 | 55.28910 | 3326 ft | 187 kts | 303° |
| 2026-05-07 20:25 | 25.30677 | 55.27699 | 3534 ft | 198 kts | 303° |
| 2026-05-07 20:25 | 25.31485 | 55.26434 | 3787 ft | 210 kts | 303° |
| 2026-05-07 20:25 | 25.32340 | 55.25090 | 4389 ft | 215 kts | 303° |
| 2026-05-07 20:26 | 25.33236 | 55.23682 | 4808 ft | 235 kts | 303° |
| 2026-05-07 20:26 | 25.34219 | 55.22133 | 5162 ft | 257 kts | 303° |
| 2026-05-07 20:26 | 25.35242 | 55.20416 | 5501 ft | 275 kts | 295° |
| 2026-05-07 20:26 | 25.35785 | 55.18385 | 6166 ft | 279 kts | 275° |
| 2026-05-07 20:27 | 25.35757 | 55.16236 | 6852 ft | 282 kts | 266° |
| 2026-05-07 20:27 | 25.35660 | 55.14062 | 7568 ft | 285 kts | 268° |
| 2026-05-07 20:27 | 25.35584 | 55.11872 | 8848 ft | 287 kts | 268° |
| 2026-05-07 20:27 | 25.35511 | 55.09654 | 9034 ft | 291 kts | 268° |
| 2026-05-07 20:28 | 25.35435 | 55.07406 | 9785 ft | 294 kts | 268° |
| 2026-05-07 20:28 | 25.35356 | 55.05135 | 10490 ft | 298 kts | 268° |
| 2026-05-07 20:28 | 25.35271 | 55.02769 | 10729 ft | 319 kts | 268° |
| 2026-05-07 20:28 | 25.35179 | 55.00238 | 10910 ft | 340 kts | 267° |
| 2026-05-07 20:29 | 25.35081 | 54.97557 | 11113 ft | 358 kts | 267° |
| 2026-05-07 20:29 | 25.34977 | 54.94734 | 11376 ft | 374 kts | 267° |
| 2026-05-07 20:29 | 25.35011 | 54.91842 | 11965 ft | 380 kts | 275° |
| 2026-05-07 20:29 | 25.35422 | 54.88937 | 12584 ft | 385 kts | 283° |
| 2026-05-07 20:30 | 25.36188 | 54.86081 | 13215 ft | 390 kts | 288° |
| 2026-05-07 20:30 | 25.37037 | 54.83214 | 13801 ft | 395 kts | 288° |
| 2026-05-07 20:30 | 25.37871 | 54.80306 | 14369 ft | 399 kts | 287° |
| 2026-05-07 20:30 | 25.38703 | 54.77373 | 14739 ft | 400 kts | 287° |
| 2026-05-07 20:31 | 25.39541 | 54.74423 | 14988 ft | 404 kts | 287° |
| 2026-05-07 20:31 | 25.40383 | 54.71464 | 15683 ft | 403 kts | 287° |
| 2026-05-07 20:31 | 25.41229 | 54.68494 | 16223 ft | 407 kts | 287° |
| 2026-05-07 20:31 | 25.42072 | 54.65532 | 16728 ft | 411 kts | 287° |
| 2026-05-07 20:32 | 25.42943 | 54.62471 | 17319 ft | 414 kts | 287° |
| 2026-05-07 20:32 | 25.43804 | 54.59464 | 17834 ft | 417 kts | 287° |
| 2026-05-07 20:32 | 25.44710 | 54.56404 | 18325 ft | 420 kts | 287° |
| 2026-05-07 20:32 | 25.45628 | 54.53330 | 18801 ft | 422 kts | 287° |
| 2026-05-07 20:33 | 25.46549 | 54.50240 | 19291 ft | 423 kts | 287° |
| 2026-05-07 20:33 | 25.47469 | 54.47137 | 19717 ft | 426 kts | 287° |
| 2026-05-07 20:33 | 25.48395 | 54.44008 | 20175 ft | 429 kts | 287° |
| 2026-05-07 20:33 | 25.49322 | 54.40865 | 20657 ft | 430 kts | 287° |
| 2026-05-07 20:34 | 25.50252 | 54.37712 | 21115 ft | 432 kts | 286° |
| 2026-05-07 20:34 | 25.51181 | 54.34552 | 21656 ft | 432 kts | 286° |
| 2026-05-07 20:34 | 25.52113 | 54.31385 | 22111 ft | 433 kts | 286° |
| 2026-05-07 20:34 | 25.53049 | 54.28197 | 22505 ft | 437 kts | 286° |
| 2026-05-07 20:35 | 25.53989 | 54.24995 | 23001 ft | 438 kts | 286° |
| 2026-05-07 20:35 | 25.54933 | 54.21780 | 23425 ft | 441 kts | 286° |
| 2026-05-07 20:35 | 25.55883 | 54.18544 | 23827 ft | 442 kts | 286° |
| 2026-05-07 20:35 | 25.56833 | 54.15303 | 24291 ft | 443 kts | 286° |
| 2026-05-07 20:36 | 25.57786 | 54.12051 | 24668 ft | 446 kts | 286° |
| 2026-05-07 20:36 | 25.58744 | 54.08779 | 25102 ft | 447 kts | 286° |
| 2026-05-07 20:36 | 25.59703 | 54.05499 | 25582 ft | 448 kts | 285° |
| 2026-05-07 20:36 | 25.60649 | 54.02202 | 26058 ft | 450 kts | 285° |
| 2026-05-07 20:37 | 25.61589 | 53.98895 | 26556 ft | 451 kts | 285° |
| 2026-05-07 20:37 | 25.62534 | 53.95565 | 27016 ft | 454 kts | 285° |
| 2026-05-07 20:37 | 25.63482 | 53.92227 | 27617 ft | 455 kts | 285° |
| 2026-05-07 20:37 | 25.64433 | 53.88881 | 28202 ft | 456 kts | 285° |
| 2026-05-07 20:38 | 25.65389 | 53.85516 | 28750 ft | 459 kts | 285° |
| 2026-05-07 20:38 | 25.66349 | 53.82135 | 29315 ft | 461 kts | 285° |
| 2026-05-07 20:38 | 25.67314 | 53.78735 | 29872 ft | 464 kts | 284° |
| 2026-05-07 20:38 | 25.68283 | 53.75316 | 30352 ft | 466 kts | 284° |
| 2026-05-07 20:39 | 25.69257 | 53.71878 | 30802 ft | 469 kts | 284° |
| 2026-05-07 20:39 | 25.70233 | 53.68414 | 31247 ft | 472 kts | 284° |
| 2026-05-07 20:39 | 25.71213 | 53.64927 | 31722 ft | 475 kts | 284° |
| 2026-05-07 20:39 | 25.72196 | 53.61423 | 32184 ft | 478 kts | 284° |
| 2026-05-07 20:40 | 25.73172 | 53.57945 | 32626 ft | 480 kts | 284° |
| 2026-05-07 20:40 | 25.74166 | 53.54398 | 33087 ft | 483 kts | 284° |
| 2026-05-07 20:40 | 25.75167 | 53.50824 | 33542 ft | 486 kts | 284° |
| 2026-05-07 20:40 | 25.76171 | 53.47242 | 33992 ft | 488 kts | 284° |
| 2026-05-07 20:41 | 25.77184 | 53.43636 | 34386 ft | 491 kts | 283° |
| 2026-05-07 20:41 | 25.78200 | 53.40014 | 34829 ft | 492 kts | 283° |
| 2026-05-07 20:41 | 25.79216 | 53.36393 | 35361 ft | 491 kts | 283° |
| 2026-05-07 20:41 | 25.80229 | 53.32779 | 35953 ft | 489 kts | 283° |
| 2026-05-07 20:42 | 25.81236 | 53.29178 | 36527 ft | 488 kts | 283° |
| 2026-05-07 20:42 | 25.82240 | 53.25584 | 37066 ft | 487 kts | 283° |
| 2026-05-07 20:42 | 25.83240 | 53.22000 | 37609 ft | 486 kts | 283° |
| 2026-05-07 20:42 | 25.84308 | 53.18436 | 38050 ft | 490 kts | 287° |